Time;durP1;ratioP1;P1;durP2;ratioP2;P2;SDS_P1;SDS_P2;PMS_P1;PMS_P2;Temp;Humidity;BMP_temperature;BMP_pressure;BME280_temperature;BME280_humidity;BME280_pressure;Samples;Min_cycle;Max_cycle;Signal;HPM_P1;HPM_P2
2022/12/29 00:02:20;;;;;;;;;3.00;2.00;;;;;15.10;51.69;100460.69;5056495;28;46057;-79
2022/12/29 00:04:45;;;;;;;;;2.00;2.00;;;;;15.08;51.75;100451.84;5057091;28;45545;-78
2022/12/29 00:07:11;;;;;;;;;3.00;1.33;;;;;15.04;52.36;100450.06;5056498;28;45525;-80
2022/12/29 00:09:37;;;;;;;;;3.00;3.00;;;;;14.76;52.42;100405.06;5057290;28;45437;-79
2022/12/29 00:12:04;;;;;;;;;3.00;3.00;;;;;15.01;52.03;100456.19;5054885;28;45643;-76
2022/12/29 00:17:13;;;;;;;;;2.33;2.00;;;;;14.89;51.90;100404.34;5056296;28;45403;-77
2022/12/29 00:36:37;;;;;;;;;1.67;1.67;;;;;14.95;51.95;100376.34;5056495;28;45419;-72
2022/12/29 00:44:52;;;;;;;;;2.00;1.67;;;;;15.10;52.15;100406.31;5056278;28;45456;-77
2022/12/29 00:47:17;;;;;;;;;2.00;2.00;;;;;15.13;52.04;100405.44;5056300;28;45489;-79
2022/12/29 00:49:43;;;;;;;;;2.00;2.00;;;;;15.10;52.15;100403.69;5056181;28;45509;-78
2022/12/29 00:52:12;;;;;;;;;1.00;1.00;;;;;15.08;51.99;100391.34;5056335;28;45476;-78
2022/12/29 00:54:40;;;;;;;;;3.00;2.00;;;;;15.13;52.21;100381.75;5056367;28;46168;-78
2022/12/29 00:57:08;;;;;;;;;3.00;3.00;;;;;15.05;52.26;100375.56;5055821;28;45281;-79
2022/12/29 00:59:41;;;;;;;;;3.00;2.00;;;;;15.00;52.35;100354.47;5056181;28;45469;-70
2022/12/29 01:02:08;;;;;;;;;2.33;2.33;;;;;14.99;52.15;100351.81;5056423;28;45362;-76
2022/12/29 01:04:34;;;;;;;;;4.00;2.00;;;;;15.08;52.39;100370.31;5055334;28;45602;-70
2022/12/29 01:06:59;;;;;;;;;2.00;2.00;;;;;15.02;52.30;100360.63;5055825;28;45477;-75
2022/12/29 01:12:10;;;;;;;;;3.00;1.00;;;;;15.06;52.45;100362.41;5055710;28;45462;-79
2022/12/29 01:14:36;;;;;;;;;2.00;2.00;;;;;15.08;52.36;100362.41;5053934;28;46232;-72
2022/12/29 01:17:02;;;;;;;;;3.00;2.00;;;;;15.20;51.96;100362.53;5049276;28;45405;-78
2022/12/29 01:19:28;;;;;;;;;4.00;2.00;;;;;15.21;52.10;100369.53;5059506;28;45432;-79
2022/12/29 01:21:53;;;;;;;;;2.00;2.00;;;;;15.23;52.01;100364.31;5059055;28;45479;-76
2022/12/29 01:24:20;;;;;;;;;2.00;2.00;;;;;15.29;51.90;100369.63;5058961;28;45979;-72
2022/12/29 01:26:46;;;;;;;;;2.00;2.00;;;;;15.23;51.90;100361.66;5059104;28;45549;-78
2022/12/29 01:29:12;;;;;;;;;3.00;2.33;;;;;15.05;51.83;100336.97;5059188;28;45548;-79
2022/12/29 01:31:37;;;;;;;;;3.67;2.33;;;;;15.20;51.88;100373.06;5058893;28;45400;-78
2022/12/29 01:34:04;;;;;;;;;2.33;1.33;;;;;15.23;51.82;100374.84;5059261;28;45493;-74
2022/12/29 01:36:30;;;;;;;;;2.33;2.00;;;;;15.22;51.69;100381.84;5059005;28;45566;-73
2022/12/29 01:38:55;;;;;;;;;2.33;2.33;;;;;15.22;51.81;100368.69;5059250;28;45529;-78
2022/12/29 01:41:22;;;;;;;;;2.00;2.00;;;;;15.21;51.83;100364.28;5058994;28;45487;-75
2022/12/29 01:43:50;;;;;;;;;1.33;1.33;;;;;15.22;51.84;100373.97;5058494;28;45954;-76
2022/12/29 01:46:24;;;;;;;;;2.00;2.00;;;;;15.29;51.34;100381.00;5058963;28;45437;-75
2022/12/29 01:48:54;;;;;;;;;2.00;2.00;;;;;15.37;51.30;100390.72;5058972;28;45213;-71
2022/12/29 01:51:23;;;;;;;;;2.00;2.00;;;;;15.40;51.35;100385.47;5058428;28;45403;-76
2022/12/29 01:53:50;;;;;;;;;3.00;2.00;;;;;15.42;51.36;100386.38;5058757;28;45374;-76
2022/12/29 01:56:19;;;;;;;;;3.00;3.00;;;;;15.44;51.11;100390.78;5058265;28;45372;-74
2022/12/29 01:58:48;;;;;;;;;2.00;2.00;;;;;15.51;51.06;100378.56;5058710;28;45689;-79
2022/12/29 02:01:18;;;;;;;;;2.00;2.00;;;;;15.54;50.89;100365.41;5043114;28;45470;-80
2022/12/29 02:03:43;;;;;;;;;2.33;2.00;;;;;15.57;50.69;100380.34;5058614;28;45431;-79
2022/12/29 02:06:21;;;;;;;;;2.33;1.67;;;;;15.61;50.95;100374.22;5058269;28;45489;-78
2022/12/29 02:08:49;;;;;;;;;2.00;2.00;;;;;15.38;50.40;100314.44;5058306;28;45334;-75
2022/12/29 02:11:16;;;;;;;;;4.00;2.00;;;;;15.54;50.34;100333.81;5058849;28;45573;-79
2022/12/29 02:13:41;;;;;;;;;2.00;2.00;;;;;15.74;50.08;100367.31;5057562;28;45585;-75
2022/12/29 02:16:19;;;;;;;;;2.33;1.33;;;;;15.70;49.92;100367.28;5058866;28;45516;-69
2022/12/29 02:19:11;;;;;;;;;2.00;2.00;;;;;15.81;49.88;100384.91;5058814;28;45619;-79
2022/12/29 02:21:53;;;;;;;;;3.00;2.00;;;;;15.83;50.17;100391.06;5048116;28;45445;-74
2022/12/29 02:24:56;;;;;;;;;2.00;1.00;;;;;15.83;50.05;100420.94;5058014;28;46207;-78
2022/12/29 02:27:43;;;;;;;;;1.00;1.00;;;;;15.85;50.01;100407.78;5058054;28;45272;-79
2022/12/29 02:30:33;;;;;;;;;0.67;0.00;;;;;15.85;49.86;100423.56;5058438;28;45284;-69
2022/12/29 02:33:07;;;;;;;;;2.00;2.00;;;;;15.85;49.72;100427.09;5058582;28;45475;-78
2022/12/29 02:35:51;;;;;;;;;2.00;2.00;;;;;15.89;49.62;100422.72;5057784;28;45370;-79
2022/12/29 02:38:28;;;;;;;;;2.00;2.00;;;;;15.91;49.74;100420.97;5058184;28;45549;-79
2022/12/29 02:40:54;;;;;;;;;1.00;1.00;;;;;15.93;49.93;100419.22;5058190;28;45422;-77
2022/12/29 02:43:42;;;;;;;;;2.00;1.00;;;;;15.90;49.88;100409.56;5057570;28;45583;-78
2022/12/29 02:46:42;;;;;;;;;1.00;1.00;;;;;15.94;49.86;100417.50;5058677;28;46320;-75
2022/12/29 02:49:20;;;;;;;;;1.00;1.00;;;;;15.93;49.79;100421.88;5055277;28;45332;-77
2022/12/29 02:51:58;;;;;;;;;2.00;1.33;;;;;15.93;50.11;100424.50;5057681;28;45536;-72
2022/12/29 02:54:42;;;;;;;;;2.00;1.00;;;;;15.93;49.95;100419.22;5058232;28;45430;-79
2022/12/29 02:57:27;;;;;;;;;2.00;2.00;;;;;15.93;50.11;100416.59;5058113;28;46155;-78
2022/12/29 03:00:10;;;;;;;;;2.33;1.00;;;;;15.91;50.05;100416.59;5057325;28;45514;-76
2022/12/29 03:02:39;;;;;;;;;1.00;1.00;;;;;15.89;49.75;100412.19;5058050;28;45472;-77
2022/12/29 03:05:40;;;;;;;;;2.00;2.00;;;;;15.70;50.07;100387.47;5057937;28;45556;-78
2022/12/29 03:08:19;;;;;;;;;1.00;1.00;;;;;15.78;50.01;100413.91;5056988;28;45679;-72
2022/12/29 03:17:39;;;;;;;;;1.00;1.00;;;;;15.66;50.54;100406.75;5041143;28;45202;-78
2022/12/29 03:20:10;;;;;;;;;2.00;2.00;;;;;15.62;50.77;100413.75;5055489;28;45792;-78
2022/12/29 03:22:41;;;;;;;;;1.00;1.00;;;;;15.41;50.81;100387.25;5038002;28;45451;-75
2022/12/29 03:25:18;;;;;;;;;2.33;2.00;;;;;15.56;50.72;100411.06;5056713;28;45406;-78
2022/12/29 03:27:57;;;;;;;;;1.00;1.00;;;;;15.55;50.78;100411.06;5057684;28;45482;-79
2022/12/29 03:30:23;;;;;;;;;2.00;2.00;;;;;15.51;51.06;100405.75;5057502;28;46236;-80
2022/12/29 03:32:58;;;;;;;;;1.00;1.00;;;;;15.47;51.07;100414.50;5056878;28;45520;-78
2022/12/29 03:35:27;;;;;;;;;3.00;2.00;;;;;15.47;51.20;100405.72;5056630;28;45685;-75
2022/12/29 03:37:52;;;;;;;;;1.00;1.00;;;;;15.44;51.24;100403.97;5057572;28;45491;-79
2022/12/29 03:40:22;;;;;;;;;2.33;1.00;;;;;15.29;51.29;100380.13;5057204;28;45402;-76
2022/12/29 03:42:48;;;;;;;;;2.00;2.00;;;;;15.43;51.11;100402.19;5041519;28;45532;-71
2022/12/29 03:45:14;;;;;;;;;2.00;1.00;;;;;15.41;51.09;100406.56;5057103;28;45588;-79
2022/12/29 03:47:39;;;;;;;;;1.00;1.00;;;;;15.37;51.60;100410.03;5057558;28;45493;-78
2022/12/29 03:50:08;;;;;;;;;1.33;1.00;;;;;15.33;51.48;100405.63;5057031;28;46016;-73
2022/12/29 03:52:34;;;;;;;;;0.67;0.67;;;;;15.34;51.65;100412.66;5057114;28;46572;-77
2022/12/29 03:54:59;;;;;;;;;1.00;1.00;;;;;15.33;51.57;100413.50;5056343;28;45498;-78
2022/12/29 03:57:25;;;;;;;;;2.00;1.00;;;;;15.22;51.58;100400.28;5057141;28;45267;-78
2022/12/29 03:59:50;;;;;;;;;1.00;1.00;;;;;15.29;51.58;100409.97;5057042;28;46200;-79
2022/12/29 04:02:16;;;;;;;;;2.00;1.00;;;;;15.28;51.55;100402.94;5057013;28;45335;-79
2022/12/29 04:04:41;;;;;;;;;2.00;1.00;;;;;15.26;51.72;100399.44;5057259;28;45401;-78
2022/12/29 04:07:07;;;;;;;;;1.00;1.00;;;;;15.25;51.78;100392.38;5037471;28;45506;-79
2022/12/29 04:09:32;;;;;;;;;1.00;1.00;;;;;15.24;51.68;100398.53;5052784;28;45946;-79
2022/12/29 04:11:58;;;;;;;;;2.00;1.00;;;;;15.21;51.78;100398.50;5056471;28;45213;-69
2022/12/29 04:14:23;;;;;;;;;2.00;1.00;;;;;15.21;52.07;100393.22;5057011;28;45390;-77
2022/12/29 04:16:49;;;;;;;;;1.67;1.00;;;;;15.17;52.04;100393.19;5057523;28;45519;-77
2022/12/29 04:19:14;;;;;;;;;2.00;1.00;;;;;15.16;52.21;100394.97;5056971;28;45316;-70
2022/12/29 04:21:40;;;;;;;;;2.33;1.00;;;;;15.17;52.09;100398.47;5057223;28;45253;-73
2022/12/29 04:24:06;;;;;;;;;1.67;1.67;;;;;15.18;52.04;100405.47;5056641;28;45244;-78
2022/12/29 04:26:32;;;;;;;;;1.67;1.00;;;;;15.19;52.01;100410.75;5057087;28;45493;-79
2022/12/29 04:28:58;;;;;;;;;1.00;1.00;;;;;15.20;51.86;100406.38;5056701;28;45938;-79
2022/12/29 04:31:23;;;;;;;;;0.67;0.67;;;;;15.18;51.78;100409.00;5056011;28;45237;-76
2022/12/29 04:33:49;;;;;;;;;1.00;0.33;;;;;15.20;52.14;100409.91;5056920;28;45312;-78
2022/12/29 04:36:14;;;;;;;;;1.00;0.67;;;;;15.24;52.03;100419.59;5057394;28;45490;-79
2022/12/29 04:38:40;;;;;;;;;1.00;1.00;;;;;15.28;52.11;100421.38;5056844;28;46478;-78
2022/12/29 04:41:06;;;;;;;;;1.00;1.00;;;;;15.32;51.99;100423.16;5056356;28;45543;-73
2022/12/29 04:43:31;;;;;;;;;0.33;0.00;;;;;15.35;51.72;100421.44;5040882;28;45461;-77
2022/12/29 04:45:57;;;;;;;;;1.33;1.00;;;;;15.42;51.67;100437.28;5057072;28;45269;-74
2022/12/29 04:48:22;;;;;;;;;1.67;1.67;;;;;15.44;51.63;100440.81;5058095;28;45435;-77
2022/12/29 04:50:49;;;;;;;;;1.33;1.00;;;;;15.48;51.67;100437.34;5056737;28;45318;-72
2022/12/29 04:53:16;;;;;;;;;1.00;1.00;;;;;15.40;51.85;100412.69;5056742;28;45400;-74
2022/12/29 04:55:41;;;;;;;;;1.00;1.00;;;;;15.52;51.51;100431.22;5056850;28;45667;-75
2022/12/29 04:58:07;;;;;;;;;1.00;1.00;;;;;15.30;52.05;100389.81;5056221;28;45330;-79
2022/12/29 05:00:33;;;;;;;;;1.00;1.00;;;;;15.58;51.37;100429.50;5055754;28;45542;-74
2022/12/29 05:02:58;;;;;;;;;1.33;1.00;;;;;15.60;51.38;100435.69;5056444;28;45621;-75
2022/12/29 05:05:24;;;;;;;;;2.33;2.00;;;;;15.60;51.63;100427.78;5056482;28;45673;-78
2022/12/29 05:07:49;;;;;;;;;1.00;1.00;;;;;15.60;51.56;100430.41;5056046;28;45442;-79
2022/12/29 05:10:15;;;;;;;;;2.00;2.00;;;;;15.60;51.58;100419.88;5056189;28;45320;-75
2022/12/29 05:12:40;;;;;;;;;2.00;1.00;;;;;15.62;51.46;100432.19;5055368;28;45314;-79
2022/12/29 05:15:10;;;;;;;;;1.00;1.00;;;;;15.64;51.79;100434.81;5056133;28;45458;-78
2022/12/29 05:17:36;;;;;;;;;3.00;3.00;;;;;15.62;51.84;100441.84;5055495;28;45513;-78
2022/12/29 05:20:02;;;;;;;;;1.00;1.00;;;;;15.38;53.77;100397.75;5055573;28;45363;-79
2022/12/29 05:22:27;;;;;;;;;1.00;1.00;;;;;15.58;55.45;100438.28;5056015;28;45610;-76
2022/12/29 05:24:53;;;;;;;;;1.00;1.00;;;;;15.60;55.65;100441.81;5056662;28;45367;-75
2022/12/29 05:27:18;;;;;;;;;1.00;0.00;;;;;15.59;56.51;100436.53;5055374;28;45578;-72
2022/12/29 05:29:44;;;;;;;;;3.00;1.00;;;;;15.52;57.59;100440.88;5056248;28;45320;-79
2022/12/29 05:32:09;;;;;;;;;0.67;0.67;;;;;15.51;58.03;100442.59;5055909;28;45657;-74
2022/12/29 05:34:35;;;;;;;;;2.00;1.33;;;;;15.50;58.52;100446.13;5055885;28;45354;-78
2022/12/29 05:37:02;;;;;;;;;0.67;0.00;;;;;15.42;59.30;100447.81;5055137;28;46631;-78
2022/12/29 05:39:27;;;;;;;;;1.00;0.00;;;;;15.37;59.25;100453.91;5054978;28;45252;-76
2022/12/29 05:41:53;;;;;;;;;1.00;0.33;;;;;15.30;59.79;100447.72;5057111;28;45308;-76
2022/12/29 05:44:18;;;;;;;;;2.00;1.00;;;;;15.17;60.54;100457.22;5055956;28;45547;-79
2022/12/29 05:46:44;;;;;;;;;1.33;1.00;;;;;15.11;61.37;100454.53;5055404;28;46175;-79
2022/12/29 05:49:12;;;;;;;;;0.00;0.00;;;;;15.06;61.21;100459.75;5056414;28;45431;-79
2022/12/29 05:51:38;;;;;;;;;0.00;0.00;;;;;15.02;62.39;100451.81;5057121;28;45505;-79
2022/12/29 05:54:05;;;;;;;;;1.33;0.00;;;;;14.95;61.63;100450.00;5043869;28;45415;-78
2022/12/29 05:56:30;;;;;;;;;0.00;0.00;;;;;14.91;61.77;100451.69;5053157;28;45645;-76
2022/12/29 05:58:56;;;;;;;;;9.25;7.75;;;;;14.84;61.88;100450.75;5057237;28;45332;-76
2022/12/29 06:01:22;;;;;;;;;1.00;1.00;;;;;14.83;62.16;100441.09;5060170;28;45486;-79
2022/12/29 06:03:47;;;;;;;;;3.00;2.00;;;;;14.75;62.17;100432.25;5061612;28;45464;-71
2022/12/29 06:06:13;;;;;;;;;2.00;1.00;;;;;14.63;62.08;100397.94;5060298;28;45603;-79
2022/12/29 06:08:38;;;;;;;;;1.00;0.00;;;;;14.41;62.54;100381.00;5059399;28;45467;-75
2022/12/29 06:11:04;;;;;;;;;1.33;0.33;;;;;14.45;62.63;100399.44;5059611;28;45399;-78
2022/12/29 06:13:29;;;;;;;;;1.00;1.00;;;;;14.44;62.87;100413.47;5058908;28;45528;-78
2022/12/29 06:15:55;;;;;;;;;0.00;0.00;;;;;14.39;62.54;100407.25;5057828;28;46231;-76
2022/12/29 06:18:20;;;;;;;;;1.00;0.00;;;;;14.35;62.65;100405.47;5059069;28;45502;-76
2022/12/29 06:20:46;;;;;;;;;0.67;0.00;;;;;14.34;62.47;100406.31;5059114;28;45880;-73
2022/12/29 06:23:13;;;;;;;;;2.00;1.00;;;;;14.35;62.34;100407.22;5058070;28;45423;-79
2022/12/29 06:25:38;;;;;;;;;1.00;1.00;;;;;14.37;62.00;100403.72;5058283;28;45498;-76
2022/12/29 06:28:05;;;;;;;;;2.00;1.00;;;;;14.40;61.72;100403.75;5057787;28;45194;-78
2022/12/29 06:30:31;;;;;;;;;2.67;2.33;;;;;14.42;61.09;100395.91;5058328;28;45431;-77
2022/12/29 06:32:58;;;;;;;;;6.00;5.00;;;;;14.42;60.81;100393.25;5058787;28;45339;-78
2022/12/29 06:35:23;;;;;;;;;3.00;2.00;;;;;14.43;60.14;100384.53;5058187;28;46023;-78
2022/12/29 06:37:49;;;;;;;;;1.33;1.33;;;;;14.29;58.92;100364.22;5058461;28;45376;-79
2022/12/29 06:40:14;;;;;;;;;6.75;6.25;;;;;14.28;58.74;100359.84;5059383;28;45229;-78
2022/12/29 06:42:40;;;;;;;;;5.00;4.00;;;;;14.15;58.29;100341.28;5057980;28;45403;-78
2022/12/29 06:45:07;;;;;;;;;20.50;18.00;;;;;14.29;58.11;100379.13;5058092;28;45457;-77
2022/12/29 06:47:33;;;;;;;;;9.50;7.00;;;;;14.20;58.45;100376.34;5058163;28;45371;-69
2022/12/29 06:49:59;;;;;;;;;2.33;2.00;;;;;14.19;58.34;100382.50;5058249;28;45316;-73
2022/12/29 06:52:24;;;;;;;;;6.75;5.75;;;;;14.12;58.24;100379.78;5057766;28;45423;-77
2022/12/29 06:54:50;;;;;;;;;7.75;6.75;;;;;14.03;58.11;100373.53;5058280;28;45513;-77
2022/12/29 06:57:15;;;;;;;;;5.00;4.50;;;;;14.07;58.13;100377.97;5057775;28;45490;-69
2022/12/29 06:59:41;;;;;;;;;2.00;1.00;;;;;14.08;57.30;100375.34;5058001;28;45458;-70
2022/12/29 07:02:06;;;;;;;;;2.00;2.00;;;;;14.12;57.37;100371.00;5057485;28;45548;-74
2022/12/29 07:04:32;;;;;;;;;5.00;5.00;;;;;14.10;56.98;100370.97;5057226;28;45996;-78
2022/12/29 07:06:58;;;;;;;;;2.00;2.00;;;;;14.06;57.04;100374.44;5058179;28;46575;-78
2022/12/29 07:09:23;;;;;;;;;4.75;4.75;;;;;14.04;57.21;100377.91;5057716;28;45604;-79
2022/12/29 07:11:49;;;;;;;;;1.00;1.00;;;;;13.84;56.60;100356.63;5057706;28;45548;-78
2022/12/29 07:14:14;;;;;;;;;1.00;1.00;;;;;14.08;57.00;100388.47;5056839;28;46029;-77
2022/12/29 07:16:40;;;;;;;;;2.67;2.67;;;;;14.08;56.99;100383.22;5058314;28;45332;-78
2022/12/29 07:19:05;;;;;;;;;1.00;1.00;;;;;14.02;57.10;100374.38;5057040;28;45375;-74
2022/12/29 07:21:31;;;;;;;;;1.00;1.00;;;;;14.07;57.11;100398.97;5057811;28;45527;-79
2022/12/29 07:23:56;;;;;;;;;3.00;2.00;;;;;14.08;57.37;100400.72;5056947;28;45883;-72
2022/12/29 07:26:22;;;;;;;;;1.00;1.00;;;;;14.10;56.95;100401.63;5057033;28;45326;-79
2022/12/29 07:28:48;;;;;;;;;1.00;1.00;;;;;13.93;57.29;100381.28;5057367;28;45565;-79
2022/12/29 07:31:19;;;;;;;;;3.00;3.00;;;;;14.09;57.01;100394.63;5057634;28;45565;-75
2022/12/29 07:33:45;;;;;;;;;0.00;0.00;;;;;14.10;56.84;100410.38;5057098;28;45560;-68
2022/12/29 07:36:12;;;;;;;;;1.00;1.00;;;;;13.96;56.88;100367.28;5057274;28;45696;-77
2022/12/29 07:38:38;;;;;;;;;1.67;1.67;;;;;14.13;56.83;100394.69;5057123;28;45245;-73
2022/12/29 07:41:04;;;;;;;;;2.00;2.00;;;;;14.10;56.56;100377.97;5057548;28;45657;-78
2022/12/29 07:43:30;;;;;;;;;2.00;2.00;;;;;14.22;56.36;100399.16;5056569;28;46088;-73
2022/12/29 07:45:55;;;;;;;;;1.33;1.00;;;;;14.25;56.35;100403.59;5057333;28;45391;-79
2022/12/29 07:48:21;;;;;;;;;1.67;1.67;;;;;14.19;56.49;100383.38;5056877;28;45526;-79
2022/12/29 07:50:46;;;;;;;;;3.67;3.67;;;;;14.33;56.27;100402.81;5057611;28;46172;-79
2022/12/29 07:53:12;;;;;;;;;2.00;1.00;;;;;14.36;55.97;100401.94;5057059;28;45418;-79
2022/12/29 07:55:37;;;;;;;;;2.00;2.00;;;;;14.40;56.13;100397.63;5056453;28;45503;-80
2022/12/29 07:58:03;;;;;;;;;2.33;1.67;;;;;14.38;56.05;100389.72;5057325;28;45249;-78
2022/12/29 08:00:28;;;;;;;;;6.25;5.00;;;;;14.49;56.07;100403.88;5057228;28;45324;-77
2022/12/29 08:02:54;;;;;;;;;4.00;3.75;;;;;14.55;55.61;100410.09;5057128;28;46027;-69
2022/12/29 08:05:20;;;;;;;;;3.00;3.00;;;;;14.61;55.50;100412.81;5056398;28;45438;-77
2022/12/29 08:07:46;;;;;;;;;3.75;3.75;;;;;14.65;55.51;100407.59;5057064;28;45458;-77
2022/12/29 08:10:13;;;;;;;;;1.33;1.33;;;;;14.71;54.90;100414.66;5055445;28;45385;-78
2022/12/29 08:12:40;;;;;;;;;7.00;4.00;;;;;14.79;55.19;100414.75;5056839;28;46178;-78
2022/12/29 08:15:06;;;;;;;;;2.00;2.00;;;;;14.88;54.78;100415.75;5055787;28;45498;-78
2022/12/29 08:17:32;;;;;;;;;3.33;2.00;;;;;14.95;54.43;100424.56;5056056;28;45584;-78
2022/12/29 08:19:58;;;;;;;;;1.67;1.00;;;;;14.94;54.13;100420.19;5061216;28;45426;-77
2022/12/29 08:22:24;;;;;;;;;2.00;2.00;;;;;15.03;54.08;100433.41;5040368;28;46171;-75
2022/12/29 08:24:49;;;;;;;;;1.00;0.00;;;;;15.09;54.21;100433.47;5057261;28;45348;-77
2022/12/29 08:27:15;;;;;;;;;2.33;1.33;;;;;15.14;53.93;100438.78;5056654;28;45307;-76
2022/12/29 08:29:41;;;;;;;;;2.67;1.33;;;;;15.19;53.83;100430.94;5057616;28;45496;-72
2022/12/29 08:32:06;;;;;;;;;2.00;2.00;;;;;15.23;53.52;100428.34;5056787;28;45980;-78
2022/12/29 08:34:32;;;;;;;;;2.33;2.00;;;;;15.27;53.46;100427.50;5056450;28;45501;-70
2022/12/29 08:36:58;;;;;;;;;1.00;1.00;;;;;15.32;53.34;100435.44;5056685;28;45406;-71
2022/12/29 08:39:23;;;;;;;;;1.00;1.00;;;;;15.37;53.31;100438.13;5056944;28;45454;-71
2022/12/29 08:41:49;;;;;;;;;1.33;1.00;;;;;15.39;53.10;100441.63;5056591;28;45382;-76
2022/12/29 08:44:14;;;;;;;;;1.00;1.00;;;;;15.38;52.86;100437.22;5055919;28;45423;-75
2022/12/29 08:46:40;;;;;;;;;2.00;2.00;;;;;15.41;52.79;100439.91;5057369;28;46396;-78
2022/12/29 08:49:05;;;;;;;;;3.00;2.00;;;;;15.47;52.64;100440.81;5057515;28;45485;-77
2022/12/29 08:51:31;;;;;;;;;1.67;1.67;;;;;15.36;52.59;100425.81;5057611;28;45490;-73
2022/12/29 08:53:56;;;;;;;;;2.00;2.00;;;;;15.45;52.17;100424.13;5041913;28;45438;-79
2022/12/29 08:56:23;;;;;;;;;3.00;2.00;;;;;15.63;52.18;100455.00;5056677;28;45292;-78
2022/12/29 08:58:50;;;;;;;;;1.00;1.00;;;;;15.66;51.83;100464.69;5056547;28;45371;-74
2022/12/29 09:01:15;;;;;;;;;0.67;0.67;;;;;15.73;51.83;100457.75;5056532;28;45764;-79
2022/12/29 09:03:41;;;;;;;;;1.00;1.00;;;;;15.79;51.70;100457.78;5056165;28;45441;-75
2022/12/29 09:06:07;;;;;;;;;3.00;2.00;;;;;15.83;51.53;100464.84;5055921;28;45397;-80
2022/12/29 09:08:32;;;;;;;;;2.00;1.00;;;;;15.92;51.26;100462.28;5055556;28;45450;-76
2022/12/29 09:11:30;;;;;;;;;2.00;2.00;;;;;15.99;51.26;100458.78;5056366;28;46573;-79
2022/12/29 09:13:57;;;;;;;;;1.67;1.00;;;;;16.13;51.07;100463.28;5021625;28;45524;-79
2022/12/29 09:16:23;;;;;;;;;3.00;2.33;;;;;16.10;51.03;100438.66;5056988;28;45478;-78
2022/12/29 09:18:49;;;;;;;;;1.33;1.00;;;;;16.32;50.37;100459.00;5055560;28;45639;-75
2022/12/29 09:21:16;;;;;;;;;3.33;3.00;;;;;16.46;49.87;100441.47;5055358;28;45402;-79
2022/12/29 09:23:42;;;;;;;;;2.00;1.67;;;;;16.64;49.19;100440.66;5056042;28;45528;-78
2022/12/29 09:26:08;;;;;;;;;3.00;2.33;;;;;16.80;49.38;100436.31;5056357;28;45516;-74
2022/12/29 09:28:34;;;;;;;;;2.00;2.00;;;;;17.19;49.29;100443.47;5055844;28;45458;-76
2022/12/29 09:31:00;;;;;;;;;2.00;2.00;;;;;17.58;48.48;100438.19;5055913;28;46121;-79
2022/12/29 09:33:26;;;;;;;;;2.00;2.00;;;;;17.63;47.28;100445.25;5037880;28;45426;-78
2022/12/29 09:35:56;;;;;;;;;1.00;1.00;;;;;17.60;47.36;100453.16;5059003;28;45324;-78
2022/12/29 09:38:24;;;;;;;;;5.00;3.00;;;;;17.50;47.33;100440.84;5058674;28;45460;-79
2022/12/29 09:40:54;;;;;;;;;2.00;2.00;;;;;17.34;47.37;100436.44;5058619;28;45511;-80
2022/12/29 09:43:44;;;;;;;;;2.00;2.00;;;;;17.35;47.81;100446.09;5058603;28;46294;-76
2022/12/29 09:46:31;;;;;;;;;3.67;3.00;;;;;17.34;47.56;100447.00;5058544;28;45414;-80
2022/12/29 09:49:24;;;;;;;;;1.67;1.67;;;;;17.37;47.64;100449.63;5058785;28;45505;-80
2022/12/29 09:51:53;;;;;;;;;2.00;2.00;;;;;17.44;47.35;100461.97;5056506;28;45344;-79
2022/12/29 09:54:52;;;;;;;;;3.67;3.67;;;;;17.36;47.25;100463.72;5045127;28;45374;-79
2022/12/29 09:57:25;;;;;;;;;9.33;9.33;;;;;17.38;47.29;100451.41;5058487;28;45474;-79
2022/12/29 09:59:56;;;;;;;;;4.00;4.00;;;;;17.45;47.24;100430.28;5040475;28;45312;-80
2022/12/29 10:02:37;;;;;;;;;5.00;4.00;;;;;17.86;46.40;100454.94;5058387;28;45795;-76
2022/12/29 10:05:03;;;;;;;;;2.33;2.33;;;;;18.03;46.21;100453.16;5058762;28;45458;-79
2022/12/29 10:08:11;;;;;;;;;2.67;2.00;;;;;18.19;46.20;100440.78;5058265;28;45528;-75
2022/12/29 10:10:55;;;;;;;;;0.67;0.67;;;;;18.34;45.73;100438.97;5047928;28;45692;-79
2022/12/29 10:13:21;;;;;;;;;1.67;1.67;;;;;18.37;44.98;100439.84;5057623;28;46119;-80
2022/12/29 10:16:11;;;;;;;;;1.67;1.67;;;;;18.38;45.14;100438.06;5058448;28;45422;-78
2022/12/29 10:19:28;;;;;;;;;1.67;1.67;;;;;18.41;44.94;100431.00;5058493;28;45371;-79
2022/12/29 10:22:24;;;;;;;;;1.33;1.00;;;;;18.47;44.85;100436.25;5032358;28;45379;-78
2022/12/29 10:24:55;;;;;;;;;0.67;0.67;;;;;18.43;44.93;100426.59;5057401;28;45550;-76
2022/12/29 10:27:20;;;;;;;;;2.00;1.67;;;;;18.52;45.32;100425.66;5058219;28;45435;-79
2022/12/29 10:29:54;;;;;;;;;1.50;1.50;;;;;18.61;45.02;100425.63;5058272;28;45625;-79
2022/12/29 10:32:38;;;;;;;;;1.33;1.33;;;;;18.63;44.93;100431.78;5058295;28;45530;-76
2022/12/29 10:35:15;;;;;;;;;1.67;0.67;;;;;18.61;44.69;100432.69;5058197;28;45302;-74
2022/12/29 10:37:46;;;;;;;;;1.67;0.67;;;;;18.54;44.74;100426.53;5057818;28;45504;-76
2022/12/29 10:40:19;;;;;;;;;3.00;2.67;;;;;18.51;45.04;100423.03;5057572;28;45473;-78
2022/12/29 10:42:50;;;;;;;;;0.67;0.67;;;;;18.47;45.31;100417.75;5057981;28;45583;-79
2022/12/29 10:45:18;;;;;;;;;0.67;0.67;;;;;18.31;45.35;100416.06;5057478;28;45500;-77
2022/12/29 10:48:11;;;;;;;;;2.67;2.67;;;;;18.26;45.86;100412.53;5060060;28;45513;-79
2022/12/29 10:50:42;;;;;;;;;2.67;0.67;;;;;18.12;45.69;100419.66;5036254;28;45345;-73
2022/12/29 10:53:17;;;;;;;;;0.67;0.67;;;;;18.07;45.81;100415.25;5058991;28;45277;-75
2022/12/29 10:55:43;;;;;;;;;1.67;0.67;;;;;18.13;45.88;100421.41;5057603;28;46161;-79
2022/12/29 10:58:13;;;;;;;;;2.33;0.67;;;;;18.20;45.76;100412.56;5054222;28;45551;-74
2022/12/29 11:00:39;;;;;;;;;0.67;0.33;;;;;18.23;46.02;100415.22;5058203;28;45516;-80
2022/12/29 11:03:19;;;;;;;;;2.00;2.00;;;;;18.25;45.92;100408.16;5056839;28;45320;-80
2022/12/29 11:06:13;;;;;;;;;1.00;1.00;;;;;18.13;45.64;100398.50;5042324;28;45403;-74
2022/12/29 11:08:50;;;;;;;;;2.67;2.00;;;;;18.20;45.61;100401.97;5041778;28;45558;-79
2022/12/29 11:11:23;;;;;;;;;2.00;1.33;;;;;18.27;45.70;100396.69;5041763;28;45456;-80
2022/12/29 11:13:56;;;;;;;;;0.33;0.00;;;;;18.43;45.05;100397.47;5057368;28;45481;-80
2022/12/29 11:16:33;;;;;;;;;0.67;0.00;;;;;18.57;44.68;100373.59;5057786;28;45493;-80
2022/12/29 11:18:59;;;;;;;;;0.67;0.67;;;;;18.74;44.47;100380.56;5057740;28;45507;-81
2022/12/29 11:21:40;;;;;;;;;0.33;0.00;;;;;18.99;44.57;100374.25;5057762;28;45407;-81
2022/12/29 11:24:20;;;;;;;;;0.33;0.00;;;;;19.16;43.56;100371.50;5058006;28;45473;-79
2022/12/29 11:26:46;;;;;;;;;2.00;1.00;;;;;19.41;43.31;100368.63;5057444;28;45476;-76
2022/12/29 11:29:25;;;;;;;;;1.00;1.00;;;;;19.53;43.24;100363.19;5056905;28;45540;-74
2022/12/29 11:31:58;;;;;;;;;1.00;1.00;;;;;19.60;43.18;100358.75;5043160;28;45458;-73
2022/12/29 11:34:33;;;;;;;;;0.00;0.00;;;;;19.69;42.59;100363.91;5057347;28;45433;-80
2022/12/29 11:37:06;;;;;;;;;0.67;0.67;;;;;19.65;42.55;100364.84;5056897;28;45402;-75
2022/12/29 11:39:41;;;;;;;;;1.00;0.00;;;;;19.68;42.20;100370.13;5056663;28;45439;-79
2022/12/29 11:42:14;;;;;;;;;0.00;0.00;;;;;19.70;42.69;100368.34;5057872;28;45459;-78
2022/12/29 11:44:44;;;;;;;;;1.67;1.00;;;;;19.68;42.32;100365.69;5057017;28;45827;-70
2022/12/29 11:47:22;;;;;;;;;0.00;0.00;;;;;19.62;42.36;100351.66;5056208;28;45493;-69
2022/12/29 11:49:55;;;;;;;;;0.67;0.00;;;;;19.57;42.34;100351.69;5056867;28;45232;-79
2022/12/29 11:52:25;;;;;;;;;1.00;0.00;;;;;19.59;42.61;100355.19;5056737;28;45429;-79
2022/12/29 11:54:53;;;;;;;;;0.00;0.00;;;;;19.45;42.39;100325.31;5056484;28;45768;-78
2022/12/29 11:57:21;;;;;;;;;1.00;1.00;;;;;19.59;42.70;100360.47;5056061;28;46157;-80
2022/12/29 11:59:57;;;;;;;;;2.67;1.33;;;;;19.41;42.95;100311.22;5056816;28;45648;-80
2022/12/29 12:02:51;;;;;;;;;1.00;1.00;;;;;19.59;42.74;100352.53;5057140;28;45312;-75
2022/12/29 12:05:23;;;;;;;;;1.00;1.00;;;;;19.70;42.42;100352.44;5023864;28;45500;-74
2022/12/29 12:08:16;;;;;;;;;1.33;1.00;;;;;19.65;42.43;100351.59;5056827;28;46084;-77
2022/12/29 12:10:57;;;;;;;;;1.00;1.00;;;;;19.69;42.95;100348.03;5035227;28;45313;-73
2022/12/29 12:13:42;;;;;;;;;1.00;0.67;;;;;19.63;42.49;100326.88;5056443;28;45391;-77